sensor_id;sensor_type;location;lat;lon;timestamp;P1;durP1;ratioP1;P2;durP2;ratioP2
43891;SDS011;29555;45.350;5.578;2023-11-21T00:01:44;6.95;;;2.75;;
43891;SDS011;29555;45.350;5.578;2023-11-21T00:04:09;3.72;;;2.28;;
43891;SDS011;29555;45.350;5.578;2023-11-21T00:06:35;3.17;;;2.15;;
43891;SDS011;29555;45.350;5.578;2023-11-21T00:09:00;3.60;;;1.90;;
43891;SDS011;29555;45.350;5.578;2023-11-21T00:11:25;8.75;;;2.15;;
43891;SDS011;29555;45.350;5.578;2023-11-21T00:13:51;7.63;;;2.50;;
43891;SDS011;29555;45.350;5.578;2023-11-21T00:16:16;9.60;;;4.00;;
43891;SDS011;29555;45.350;5.578;2023-11-21T00:18:42;5.85;;;2.80;;
43891;SDS011;29555;45.350;5.578;2023-11-21T00:21:08;8.50;;;3.47;;
43891;SDS011;29555;45.350;5.578;2023-11-21T00:23:34;12.38;;;4.57;;
43891;SDS011;29555;45.350;5.578;2023-11-21T00:26:00;7.15;;;5.57;;
43891;SDS011;29555;45.350;5.578;2023-11-21T00:28:26;6.50;;;3.30;;
43891;SDS011;29555;45.350;5.578;2023-11-21T00:30:51;10.40;;;4.72;;
43891;SDS011;29555;45.350;5.578;2023-11-21T00:33:16;13.60;;;6.45;;
43891;SDS011;29555;45.350;5.578;2023-11-21T00:35:42;6.05;;;3.40;;
43891;SDS011;29555;45.350;5.578;2023-11-21T00:38:07;4.63;;;3.60;;
43891;SDS011;29555;45.350;5.578;2023-11-21T00:40:33;5.90;;;4.05;;
43891;SDS011;29555;45.350;5.578;2023-11-21T00:42:59;4.22;;;3.42;;
43891;SDS011;29555;45.350;5.578;2023-11-21T00:45:24;10.68;;;4.13;;
43891;SDS011;29555;45.350;5.578;2023-11-21T00:47:50;15.70;;;4.28;;
43891;SDS011;29555;45.350;5.578;2023-11-21T00:50:16;5.68;;;3.42;;
43891;SDS011;29555;45.350;5.578;2023-11-21T00:52:41;9.40;;;4.22;;
43891;SDS011;29555;45.350;5.578;2023-11-21T00:55:07;6.45;;;4.70;;
43891;SDS011;29555;45.350;5.578;2023-11-21T00:57:33;12.88;;;6.50;;
43891;SDS011;29555;45.350;5.578;2023-11-21T00:59:59;8.65;;;5.55;;
43891;SDS011;29555;45.350;5.578;2023-11-21T01:02:25;5.13;;;4.43;;
43891;SDS011;29555;45.350;5.578;2023-11-21T01:04:50;12.75;;;6.97;;
43891;SDS011;29555;45.350;5.578;2023-11-21T01:07:16;11.13;;;6.75;;
43891;SDS011;29555;45.350;5.578;2023-11-21T01:09:41;10.90;;;5.68;;
43891;SDS011;29555;45.350;5.578;2023-11-21T01:12:07;9.23;;;4.05;;
43891;SDS011;29555;45.350;5.578;2023-11-21T01:14:32;5.60;;;3.10;;
43891;SDS011;29555;45.350;5.578;2023-11-21T01:16:58;8.60;;;3.83;;
43891;SDS011;29555;45.350;5.578;2023-11-21T01:19:23;9.93;;;3.50;;
43891;SDS011;29555;45.350;5.578;2023-11-21T01:21:48;6.43;;;4.55;;
43891;SDS011;29555;45.350;5.578;2023-11-21T01:24:14;5.72;;;3.58;;
43891;SDS011;29555;45.350;5.578;2023-11-21T01:26:39;8.73;;;4.55;;
43891;SDS011;29555;45.350;5.578;2023-11-21T01:29:04;9.35;;;4.50;;
43891;SDS011;29555;45.350;5.578;2023-11-21T01:31:30;16.52;;;6.55;;
43891;SDS011;29555;45.350;5.578;2023-11-21T01:33:56;20.15;;;10.48;;
43891;SDS011;29555;45.350;5.578;2023-11-21T01:36:22;17.83;;;8.13;;
43891;SDS011;29555;45.350;5.578;2023-11-21T01:38:47;10.15;;;5.75;;
43891;SDS011;29555;45.350;5.578;2023-11-21T01:41:15;6.60;;;4.00;;
43891;SDS011;29555;45.350;5.578;2023-11-21T01:43:40;9.73;;;3.70;;
43891;SDS011;29555;45.350;5.578;2023-11-21T01:46:06;6.85;;;3.95;;
43891;SDS011;29555;45.350;5.578;2023-11-21T01:48:33;11.75;;;5.97;;
43891;SDS011;29555;45.350;5.578;2023-11-21T01:50:59;20.58;;;8.60;;
43891;SDS011;29555;45.350;5.578;2023-11-21T01:53:25;23.15;;;10.00;;
43891;SDS011;29555;45.350;5.578;2023-11-21T01:55:51;6.80;;;3.92;;
43891;SDS011;29555;45.350;5.578;2023-11-21T01:58:17;5.88;;;2.00;;
43891;SDS011;29555;45.350;5.578;2023-11-21T02:00:43;10.77;;;2.63;;
43891;SDS011;29555;45.350;5.578;2023-11-21T02:03:08;3.38;;;2.50;;
43891;SDS011;29555;45.350;5.578;2023-11-21T02:05:35;3.08;;;2.13;;
43891;SDS011;29555;45.350;5.578;2023-11-21T02:08:01;8.07;;;3.03;;
43891;SDS011;29555;45.350;5.578;2023-11-21T02:10:28;1.75;;;1.23;;
43891;SDS011;29555;45.350;5.578;2023-11-21T02:12:54;6.38;;;2.35;;
43891;SDS011;29555;45.350;5.578;2023-11-21T02:15:21;14.65;;;5.70;;
43891;SDS011;29555;45.350;5.578;2023-11-21T02:17:47;5.95;;;2.72;;
43891;SDS011;29555;45.350;5.578;2023-11-21T02:20:16;5.93;;;2.53;;
43891;SDS011;29555;45.350;5.578;2023-11-21T02:22:43;10.80;;;3.58;;
43891;SDS011;29555;45.350;5.578;2023-11-21T02:25:31;9.13;;;3.95;;
43891;SDS011;29555;45.350;5.578;2023-11-21T02:28:02;7.15;;;2.78;;
43891;SDS011;29555;45.350;5.578;2023-11-21T02:30:28;11.93;;;4.05;;
43891;SDS011;29555;45.350;5.578;2023-11-21T02:32:56;9.68;;;5.30;;
43891;SDS011;29555;45.350;5.578;2023-11-21T02:35:22;5.78;;;3.05;;
43891;SDS011;29555;45.350;5.578;2023-11-21T02:37:48;7.30;;;2.42;;
43891;SDS011;29555;45.350;5.578;2023-11-21T02:40:14;9.93;;;3.35;;
43891;SDS011;29555;45.350;5.578;2023-11-21T02:42:43;6.05;;;2.85;;
43891;SDS011;29555;45.350;5.578;2023-11-21T02:45:09;7.53;;;2.55;;
43891;SDS011;29555;45.350;5.578;2023-11-21T02:47:37;4.68;;;2.25;;
43891;SDS011;29555;45.350;5.578;2023-11-21T02:50:03;7.70;;;2.42;;
43891;SDS011;29555;45.350;5.578;2023-11-21T02:52:29;6.72;;;1.85;;
43891;SDS011;29555;45.350;5.578;2023-11-21T02:54:54;4.90;;;1.70;;
43891;SDS011;29555;45.350;5.578;2023-11-21T02:57:20;8.02;;;2.05;;
43891;SDS011;29555;45.350;5.578;2023-11-21T02:59:45;8.65;;;3.33;;
43891;SDS011;29555;45.350;5.578;2023-11-21T03:02:10;7.50;;;2.13;;
43891;SDS011;29555;45.350;5.578;2023-11-21T03:04:36;5.85;;;2.25;;
43891;SDS011;29555;45.350;5.578;2023-11-21T03:07:01;3.28;;;1.30;;
43891;SDS011;29555;45.350;5.578;2023-11-21T03:09:26;5.28;;;2.50;;
43891;SDS011;29555;45.350;5.578;2023-11-21T03:11:52;7.22;;;2.67;;
43891;SDS011;29555;45.350;5.578;2023-11-21T03:14:18;4.25;;;2.38;;
43891;SDS011;29555;45.350;5.578;2023-11-21T03:16:44;5.60;;;2.20;;
43891;SDS011;29555;45.350;5.578;2023-11-21T03:19:10;3.92;;;1.80;;
43891;SDS011;29555;45.350;5.578;2023-11-21T03:21:36;3.97;;;2.05;;
43891;SDS011;29555;45.350;5.578;2023-11-21T03:24:01;7.38;;;2.30;;
43891;SDS011;29555;45.350;5.578;2023-11-21T03:26:27;5.20;;;2.22;;
43891;SDS011;29555;45.350;5.578;2023-11-21T03:28:52;9.27;;;2.15;;
43891;SDS011;29555;45.350;5.578;2023-11-21T03:31:18;2.75;;;2.17;;
43891;SDS011;29555;45.350;5.578;2023-11-21T03:33:44;4.68;;;2.60;;
43891;SDS011;29555;45.350;5.578;2023-11-21T03:36:10;14.90;;;2.97;;
43891;SDS011;29555;45.350;5.578;2023-11-21T03:38:36;6.90;;;2.75;;
43891;SDS011;29555;45.350;5.578;2023-11-21T03:41:01;11.13;;;2.70;;
43891;SDS011;29555;45.350;5.578;2023-11-21T03:43:27;5.03;;;2.83;;
43891;SDS011;29555;45.350;5.578;2023-11-21T03:45:52;9.65;;;2.47;;
43891;SDS011;29555;45.350;5.578;2023-11-21T03:48:18;8.63;;;3.10;;
43891;SDS011;29555;45.350;5.578;2023-11-21T03:50:43;11.60;;;3.38;;
43891;SDS011;29555;45.350;5.578;2023-11-21T03:53:08;3.50;;;2.35;;
43891;SDS011;29555;45.350;5.578;2023-11-21T03:55:34;8.65;;;1.80;;
43891;SDS011;29555;45.350;5.578;2023-11-21T03:57:59;2.85;;;1.92;;
43891;SDS011;29555;45.350;5.578;2023-11-21T04:00:25;3.92;;;1.40;;
43891;SDS011;29555;45.350;5.578;2023-11-21T04:02:53;5.35;;;1.63;;
43891;SDS011;29555;45.350;5.578;2023-11-21T04:05:19;3.47;;;2.45;;
43891;SDS011;29555;45.350;5.578;2023-11-21T04:07:46;1.85;;;1.75;;
43891;SDS011;29555;45.350;5.578;2023-11-21T04:10:11;4.95;;;3.45;;
43891;SDS011;29555;45.350;5.578;2023-11-21T04:12:37;6.35;;;1.67;;
43891;SDS011;29555;45.350;5.578;2023-11-21T04:15:03;7.97;;;1.83;;
43891;SDS011;29555;45.350;5.578;2023-11-21T04:17:29;2.15;;;1.63;;
43891;SDS011;29555;45.350;5.578;2023-11-21T04:19:54;2.90;;;1.88;;
43891;SDS011;29555;45.350;5.578;2023-11-21T04:22:19;4.25;;;2.05;;
43891;SDS011;29555;45.350;5.578;2023-11-21T04:24:45;4.13;;;2.00;;
43891;SDS011;29555;45.350;5.578;2023-11-21T04:27:10;2.45;;;2.03;;
43891;SDS011;29555;45.350;5.578;2023-11-21T04:29:36;3.08;;;1.25;;
43891;SDS011;29555;45.350;5.578;2023-11-21T04:32:01;12.43;;;1.52;;
43891;SDS011;29555;45.350;5.578;2023-11-21T04:34:27;10.45;;;2.05;;
43891;SDS011;29555;45.350;5.578;2023-11-21T04:36:55;5.63;;;2.05;;
43891;SDS011;29555;45.350;5.578;2023-11-21T04:39:21;5.90;;;2.08;;
43891;SDS011;29555;45.350;5.578;2023-11-21T04:41:46;1.05;;;0.98;;
43891;SDS011;29555;45.350;5.578;2023-11-21T04:44:12;14.70;;;1.73;;
43891;SDS011;29555;45.350;5.578;2023-11-21T04:46:37;1.40;;;1.13;;
43891;SDS011;29555;45.350;5.578;2023-11-21T04:49:03;4.20;;;1.58;;
43891;SDS011;29555;45.350;5.578;2023-11-21T04:51:28;5.07;;;2.65;;
43891;SDS011;29555;45.350;5.578;2023-11-21T04:53:53;5.10;;;2.30;;
43891;SDS011;29555;45.350;5.578;2023-11-21T04:56:19;6.60;;;2.60;;
43891;SDS011;29555;45.350;5.578;2023-11-21T04:58:44;4.55;;;2.80;;
43891;SDS011;29555;45.350;5.578;2023-11-21T05:01:10;2.58;;;2.15;;
43891;SDS011;29555;45.350;5.578;2023-11-21T05:03:36;2.92;;;2.40;;
43891;SDS011;29555;45.350;5.578;2023-11-21T05:06:03;2.60;;;2.45;;
43891;SDS011;29555;45.350;5.578;2023-11-21T05:08:30;5.25;;;1.90;;
43891;SDS011;29555;45.350;5.578;2023-11-21T05:10:55;3.13;;;1.88;;
43891;SDS011;29555;45.350;5.578;2023-11-21T05:13:21;4.35;;;2.05;;
43891;SDS011;29555;45.350;5.578;2023-11-21T05:15:47;5.57;;;2.60;;
43891;SDS011;29555;45.350;5.578;2023-11-21T05:18:12;3.95;;;1.77;;
43891;SDS011;29555;45.350;5.578;2023-11-21T05:20:40;9.98;;;2.85;;
43891;SDS011;29555;45.350;5.578;2023-11-21T05:23:06;7.05;;;2.97;;
43891;SDS011;29555;45.350;5.578;2023-11-21T05:25:33;5.30;;;2.35;;
43891;SDS011;29555;45.350;5.578;2023-11-21T05:27:58;6.15;;;2.67;;
43891;SDS011;29555;45.350;5.578;2023-11-21T05:30:26;2.60;;;1.83;;
43891;SDS011;29555;45.350;5.578;2023-11-21T05:32:51;3.47;;;2.15;;
43891;SDS011;29555;45.350;5.578;2023-11-21T05:35:17;4.43;;;3.08;;
43891;SDS011;29555;45.350;5.578;2023-11-21T05:37:42;2.20;;;1.90;;
43891;SDS011;29555;45.350;5.578;2023-11-21T05:40:09;11.95;;;1.92;;
43891;SDS011;29555;45.350;5.578;2023-11-21T05:42:35;3.15;;;1.98;;
43891;SDS011;29555;45.350;5.578;2023-11-21T05:45:01;4.28;;;3.20;;
43891;SDS011;29555;45.350;5.578;2023-11-21T05:47:39;7.68;;;3.63;;
43891;SDS011;29555;45.350;5.578;2023-11-21T05:50:07;8.68;;;4.43;;
43891;SDS011;29555;45.350;5.578;2023-11-21T05:52:39;3.95;;;3.25;;
43891;SDS011;29555;45.350;5.578;2023-11-21T05:55:05;4.10;;;2.15;;
43891;SDS011;29555;45.350;5.578;2023-11-21T05:57:32;10.27;;;2.95;;
43891;SDS011;29555;45.350;5.578;2023-11-21T05:59:58;13.63;;;5.55;;
43891;SDS011;29555;45.350;5.578;2023-11-21T06:02:24;35.33;;;16.88;;
43891;SDS011;29555;45.350;5.578;2023-11-21T06:04:50;27.00;;;7.35;;
43891;SDS011;29555;45.350;5.578;2023-11-21T06:07:15;9.80;;;5.40;;
43891;SDS011;29555;45.350;5.578;2023-11-21T06:09:41;13.60;;;6.10;;
43891;SDS011;29555;45.350;5.578;2023-11-21T06:12:06;28.35;;;13.65;;
43891;SDS011;29555;45.350;5.578;2023-11-21T06:14:32;24.15;;;9.68;;
43891;SDS011;29555;45.350;5.578;2023-11-21T06:17:00;45.80;;;21.38;;
43891;SDS011;29555;45.350;5.578;2023-11-21T06:19:25;103.65;;;40.17;;
43891;SDS011;29555;45.350;5.578;2023-11-21T06:21:50;48.75;;;22.42;;
43891;SDS011;29555;45.350;5.578;2023-11-21T06:24:16;55.90;;;22.67;;
43891;SDS011;29555;45.350;5.578;2023-11-21T06:26:42;35.72;;;14.00;;
43891;SDS011;29555;45.350;5.578;2023-11-21T06:29:08;19.50;;;10.15;;
43891;SDS011;29555;45.350;5.578;2023-11-21T06:31:33;14.20;;;7.90;;
43891;SDS011;29555;45.350;5.578;2023-11-21T06:33:58;22.20;;;12.93;;
43891;SDS011;29555;45.350;5.578;2023-11-21T06:36:25;38.05;;;16.50;;
43891;SDS011;29555;45.350;5.578;2023-11-21T06:38:51;18.35;;;10.02;;
43891;SDS011;29555;45.350;5.578;2023-11-21T06:41:17;13.32;;;8.43;;
43891;SDS011;29555;45.350;5.578;2023-11-21T06:43:42;12.13;;;7.43;;
43891;SDS011;29555;45.350;5.578;2023-11-21T06:46:11;12.52;;;6.85;;
43891;SDS011;29555;45.350;5.578;2023-11-21T06:48:39;17.40;;;6.63;;
43891;SDS011;29555;45.350;5.578;2023-11-21T06:51:07;14.07;;;7.85;;
43891;SDS011;29555;45.350;5.578;2023-11-21T06:53:32;15.70;;;7.63;;
43891;SDS011;29555;45.350;5.578;2023-11-21T06:55:58;11.07;;;5.60;;
43891;SDS011;29555;45.350;5.578;2023-11-21T06:58:23;11.25;;;7.18;;
43891;SDS011;29555;45.350;5.578;2023-11-21T07:00:49;13.95;;;7.88;;
43891;SDS011;29555;45.350;5.578;2023-11-21T07:03:15;11.50;;;6.13;;
43891;SDS011;29555;45.350;5.578;2023-11-21T07:05:40;10.18;;;5.30;;
43891;SDS011;29555;45.350;5.578;2023-11-21T07:08:08;8.82;;;3.67;;
43891;SDS011;29555;45.350;5.578;2023-11-21T07:10:34;10.98;;;4.63;;
43891;SDS011;29555;45.350;5.578;2023-11-21T07:13:01;14.25;;;5.05;;
43891;SDS011;29555;45.350;5.578;2023-11-21T07:15:27;15.95;;;6.63;;
43891;SDS011;29555;45.350;5.578;2023-11-21T07:17:53;9.70;;;5.88;;
43891;SDS011;29555;45.350;5.578;2023-11-21T07:20:19;12.13;;;5.68;;
43891;SDS011;29555;45.350;5.578;2023-11-21T07:22:44;15.80;;;6.05;;
43891;SDS011;29555;45.350;5.578;2023-11-21T07:25:10;12.38;;;6.10;;
43891;SDS011;29555;45.350;5.578;2023-11-21T07:27:36;11.40;;;4.60;;
43891;SDS011;29555;45.350;5.578;2023-11-21T07:30:02;6.88;;;4.28;;
43891;SDS011;29555;45.350;5.578;2023-11-21T07:32:32;10.20;;;4.82;;
43891;SDS011;29555;45.350;5.578;2023-11-21T07:34:58;8.63;;;4.55;;
43891;SDS011;29555;45.350;5.578;2023-11-21T07:37:26;10.35;;;6.45;;
43891;SDS011;29555;45.350;5.578;2023-11-21T07:39:54;10.13;;;6.07;;
43891;SDS011;29555;45.350;5.578;2023-11-21T07:42:23;9.73;;;6.35;;
43891;SDS011;29555;45.350;5.578;2023-11-21T07:44:49;12.82;;;6.93;;
43891;SDS011;29555;45.350;5.578;2023-11-21T07:47:15;16.20;;;7.90;;
43891;SDS011;29555;45.350;5.578;2023-11-21T07:49:40;16.23;;;7.78;;
43891;SDS011;29555;45.350;5.578;2023-11-21T07:52:08;8.50;;;5.65;;
43891;SDS011;29555;45.350;5.578;2023-11-21T07:54:34;12.30;;;7.47;;
43891;SDS011;29555;45.350;5.578;2023-11-21T07:57:00;10.88;;;6.97;;
43891;SDS011;29555;45.350;5.578;2023-11-21T07:59:26;11.80;;;6.60;;
43891;SDS011;29555;45.350;5.578;2023-11-21T08:01:51;16.17;;;8.15;;
43891;SDS011;29555;45.350;5.578;2023-11-21T08:04:17;12.05;;;6.53;;
43891;SDS011;29555;45.350;5.578;2023-11-21T08:06:43;14.13;;;5.88;;
43891;SDS011;29555;45.350;5.578;2023-11-21T08:09:08;8.93;;;5.60;;
43891;SDS011;29555;45.350;5.578;2023-11-21T08:11:34;10.07;;;5.80;;
43891;SDS011;29555;45.350;5.578;2023-11-21T08:13:59;8.23;;;4.35;;
43891;SDS011;29555;45.350;5.578;2023-11-21T08:16:25;10.68;;;4.60;;
43891;SDS011;29555;45.350;5.578;2023-11-21T08:18:50;11.73;;;4.95;;
43891;SDS011;29555;45.350;5.578;2023-11-21T08:21:16;8.15;;;4.25;;
43891;SDS011;29555;45.350;5.578;2023-11-21T08:23:41;9.63;;;5.25;;
43891;SDS011;29555;45.350;5.578;2023-11-21T08:26:07;9.00;;;4.70;;
43891;SDS011;29555;45.350;5.578;2023-11-21T08:28:33;6.53;;;4.50;;
43891;SDS011;29555;45.350;5.578;2023-11-21T08:31:00;10.95;;;4.70;;
43891;SDS011;29555;45.350;5.578;2023-11-21T08:33:26;8.20;;;4.88;;
43891;SDS011;29555;45.350;5.578;2023-11-21T08:35:51;7.63;;;4.35;;
43891;SDS011;29555;45.350;5.578;2023-11-21T08:38:16;5.35;;;4.65;;
43891;SDS011;29555;45.350;5.578;2023-11-21T08:40:42;7.75;;;3.90;;
43891;SDS011;29555;45.350;5.578;2023-11-21T08:43:08;6.15;;;4.20;;
43891;SDS011;29555;45.350;5.578;2023-11-21T08:45:34;4.20;;;3.90;;
43891;SDS011;29555;45.350;5.578;2023-11-21T08:48:00;6.70;;;3.50;;
43891;SDS011;29555;45.350;5.578;2023-11-21T08:50:25;8.48;;;4.50;;
43891;SDS011;29555;45.350;5.578;2023-11-21T08:52:51;8.27;;;4.35;;
43891;SDS011;29555;45.350;5.578;2023-11-21T08:55:16;3.38;;;3.03;;
43891;SDS011;29555;45.350;5.578;2023-11-21T08:57:43;11.93;;;4.15;;
43891;SDS011;29555;45.350;5.578;2023-11-21T09:00:09;10.70;;;4.78;;
43891;SDS011;29555;45.350;5.578;2023-11-21T09:02:37;14.85;;;4.82;;
43891;SDS011;29555;45.350;5.578;2023-11-21T09:05:04;8.02;;;3.63;;
43891;SDS011;29555;45.350;5.578;2023-11-21T09:07:31;3.97;;;3.45;;
43891;SDS011;29555;45.350;5.578;2023-11-21T09:09:56;6.05;;;4.22;;
43891;SDS011;29555;45.350;5.578;2023-11-21T09:12:21;9.40;;;4.68;;
43891;SDS011;29555;45.350;5.578;2023-11-21T09:14:47;5.15;;;3.50;;
43891;SDS011;29555;45.350;5.578;2023-11-21T09:17:12;15.65;;;4.45;;
43891;SDS011;29555;45.350;5.578;2023-11-21T09:19:39;4.00;;;2.92;;
43891;SDS011;29555;45.350;5.578;2023-11-21T09:22:05;9.75;;;5.13;;
43891;SDS011;29555;45.350;5.578;2023-11-21T09:24:31;8.95;;;3.60;;
43891;SDS011;29555;45.350;5.578;2023-11-21T09:26:57;8.68;;;3.83;;
43891;SDS011;29555;45.350;5.578;2023-11-21T09:29:22;5.85;;;4.38;;
43891;SDS011;29555;45.350;5.578;2023-11-21T09:31:48;11.05;;;5.90;;
43891;SDS011;29555;45.350;5.578;2023-11-21T09:34:14;8.00;;;5.72;;
43891;SDS011;29555;45.350;5.578;2023-11-21T09:36:40;8.43;;;5.35;;
43891;SDS011;29555;45.350;5.578;2023-11-21T09:39:06;13.50;;;5.85;;
43891;SDS011;29555;45.350;5.578;2023-11-21T09:41:36;15.73;;;6.40;;
43891;SDS011;29555;45.350;5.578;2023-11-21T09:44:09;11.52;;;6.00;;
43891;SDS011;29555;45.350;5.578;2023-11-21T09:46:39;7.95;;;4.78;;
43891;SDS011;29555;45.350;5.578;2023-11-21T09:49:07;11.40;;;4.85;;
43891;SDS011;29555;45.350;5.578;2023-11-21T09:51:39;9.02;;;5.20;;
43891;SDS011;29555;45.350;5.578;2023-11-21T09:54:08;7.93;;;4.82;;
43891;SDS011;29555;45.350;5.578;2023-11-21T09:56:36;8.38;;;5.45;;
43891;SDS011;29555;45.350;5.578;2023-11-21T09:59:02;9.90;;;6.88;;
43891;SDS011;29555;45.350;5.578;2023-11-21T10:01:35;11.20;;;5.88;;
43891;SDS011;29555;45.350;5.578;2023-11-21T10:04:01;7.93;;;5.90;;
43891;SDS011;29555;45.350;5.578;2023-11-21T10:06:26;9.10;;;6.60;;
43891;SDS011;29555;45.350;5.578;2023-11-21T10:08:55;13.63;;;6.90;;
43891;SDS011;29555;45.350;5.578;2023-11-21T10:11:22;11.07;;;6.65;;
43891;SDS011;29555;45.350;5.578;2023-11-21T10:13:54;16.60;;;6.15;;
43891;SDS011;29555;45.350;5.578;2023-11-21T10:16:22;13.02;;;7.43;;
43891;SDS011;29555;45.350;5.578;2023-11-21T10:18:51;8.07;;;5.18;;
43891;SDS011;29555;45.350;5.578;2023-11-21T10:21:19;7.18;;;4.90;;
43891;SDS011;29555;45.350;5.578;2023-11-21T10:23:45;7.75;;;4.65;;
43891;SDS011;29555;45.350;5.578;2023-11-21T10:26:11;14.27;;;5.22;;
43891;SDS011;29555;45.350;5.578;2023-11-21T10:28:54;6.47;;;4.95;;
43891;SDS011;29555;45.350;5.578;2023-11-21T10:31:21;12.85;;;3.78;;
43891;SDS011;29555;45.350;5.578;2023-11-21T10:33:49;6.75;;;5.70;;
43891;SDS011;29555;45.350;5.578;2023-11-21T10:36:24;5.72;;;3.70;;
43891;SDS011;29555;45.350;5.578;2023-11-21T10:38:51;136.20;;;51.80;;
43891;SDS011;29555;45.350;5.578;2023-11-21T10:41:18;100.55;;;38.92;;
43891;SDS011;29555;45.350;5.578;2023-11-21T10:43:43;29.17;;;12.80;;
43891;SDS011;29555;45.350;5.578;2023-11-21T10:46:09;11.60;;;7.50;;
43891;SDS011;29555;45.350;5.578;2023-11-21T10:48:35;73.40;;;31.00;;
43891;SDS011;29555;45.350;5.578;2023-11-21T10:51:01;89.65;;;48.42;;
43891;SDS011;29555;45.350;5.578;2023-11-21T10:53:32;51.63;;;28.37;;
43891;SDS011;29555;45.350;5.578;2023-11-21T10:56:05;35.53;;;19.77;;
43891;SDS011;29555;45.350;5.578;2023-11-21T10:58:32;19.17;;;9.35;;
43891;SDS011;29555;45.350;5.578;2023-11-21T11:00:58;4.50;;;4.03;;
43891;SDS011;29555;45.350;5.578;2023-11-21T11:03:25;18.65;;;5.18;;
43891;SDS011;29555;45.350;5.578;2023-11-21T11:05:50;11.20;;;4.55;;
43891;SDS011;29555;45.350;5.578;2023-11-21T11:08:18;6.63;;;4.40;;
43891;SDS011;29555;45.350;5.578;2023-11-21T11:10:50;10.40;;;3.00;;
43891;SDS011;29555;45.350;5.578;2023-11-21T11:13:15;8.43;;;3.53;;
43891;SDS011;29555;45.350;5.578;2023-11-21T11:15:41;12.50;;;2.88;;
43891;SDS011;29555;45.350;5.578;2023-11-21T11:18:09;3.78;;;2.50;;
43891;SDS011;29555;45.350;5.578;2023-11-21T11:20:35;4.90;;;3.33;;
43891;SDS011;29555;45.350;5.578;2023-11-21T11:28:47;3.03;;;2.53;;
43891;SDS011;29555;45.350;5.578;2023-11-21T11:31:39;2.92;;;2.45;;
43891;SDS011;29555;45.350;5.578;2023-11-21T11:34:26;8.70;;;4.63;;
43891;SDS011;29555;45.350;5.578;2023-11-21T11:37:02;5.20;;;3.22;;
43891;SDS011;29555;45.350;5.578;2023-11-21T11:41:56;3.80;;;2.15;;
43891;SDS011;29555;45.350;5.578;2023-11-21T11:47:19;6.47;;;2.17;;
43891;SDS011;29555;45.350;5.578;2023-11-21T11:49:56;4.15;;;1.77;;
43891;SDS011;29555;45.350;5.578;2023-11-21T11:52:39;7.28;;;3.20;;
43891;SDS011;29555;45.350;5.578;2023-11-21T11:55:24;4.00;;;2.53;;
43891;SDS011;29555;45.350;5.578;2023-11-21T12:00:17;4.07;;;2.00;;
43891;SDS011;29555;45.350;5.578;2023-11-21T12:02:59;4.70;;;1.83;;
43891;SDS011;29555;45.350;5.578;2023-11-21T12:05:29;3.72;;;2.55;;
43891;SDS011;29555;45.350;5.578;2023-11-21T12:07:58;5.50;;;3.03;;
43891;SDS011;29555;45.350;5.578;2023-11-21T12:10:29;1.80;;;1.65;;
43891;SDS011;29555;45.350;5.578;2023-11-21T12:15:26;2.28;;;1.70;;
43891;SDS011;29555;45.350;5.578;2023-11-21T12:17:54;4.05;;;2.47;;
43891;SDS011;29555;45.350;5.578;2023-11-21T12:20:20;5.32;;;2.70;;
43891;SDS011;29555;45.350;5.578;2023-11-21T12:22:53;2.33;;;1.90;;
43891;SDS011;29555;45.350;5.578;2023-11-21T12:25:21;2.78;;;1.48;;
43891;SDS011;29555;45.350;5.578;2023-11-21T12:27:52;1.30;;;1.20;;
43891;SDS011;29555;45.350;5.578;2023-11-21T12:30:21;2.42;;;1.13;;
43891;SDS011;29555;45.350;5.578;2023-11-21T12:32:49;2.63;;;1.20;;
43891;SDS011;29555;45.350;5.578;2023-11-21T12:35:19;1.13;;;0.82;;
43891;SDS011;29555;45.350;5.578;2023-11-21T12:37:46;1.25;;;1.15;;
43891;SDS011;29555;45.350;5.578;2023-11-21T12:40:12;1.95;;;0.70;;
43891;SDS011;29555;45.350;5.578;2023-11-21T12:42:40;2.75;;;1.85;;
43891;SDS011;29555;45.350;5.578;2023-11-21T12:45:12;17.77;;;1.70;;
43891;SDS011;29555;45.350;5.578;2023-11-21T12:47:43;1.80;;;1.33;;
43891;SDS011;29555;45.350;5.578;2023-11-21T12:50:09;2.80;;;2.20;;
43891;SDS011;29555;45.350;5.578;2023-11-21T12:52:45;1.50;;;1.42;;
43891;SDS011;29555;45.350;5.578;2023-11-21T12:55:18;6.05;;;2.75;;
43891;SDS011;29555;45.350;5.578;2023-11-21T12:57:47;4.97;;;1.95;;
43891;SDS011;29555;45.350;5.578;2023-11-21T13:02:56;2.63;;;1.90;;
43891;SDS011;29555;45.350;5.578;2023-11-21T13:05:24;2.75;;;2.03;;
43891;SDS011;29555;45.350;5.578;2023-11-21T13:07:54;2.58;;;1.98;;
43891;SDS011;29555;45.350;5.578;2023-11-21T13:10:23;3.35;;;2.20;;
43891;SDS011;29555;45.350;5.578;2023-11-21T13:12:54;1.50;;;1.40;;
43891;SDS011;29555;45.350;5.578;2023-11-21T13:15:23;4.07;;;2.63;;
43891;SDS011;29555;45.350;5.578;2023-11-21T13:17:49;4.40;;;2.30;;
43891;SDS011;29555;45.350;5.578;2023-11-21T13:20:16;3.75;;;2.08;;
43891;SDS011;29555;45.350;5.578;2023-11-21T13:22:51;6.93;;;2.45;;
43891;SDS011;29555;45.350;5.578;2023-11-21T13:25:26;7.13;;;3.83;;
43891;SDS011;29555;45.350;5.578;2023-11-21T13:27:55;3.85;;;3.08;;
43891;SDS011;29555;45.350;5.578;2023-11-21T13:30:21;2.85;;;2.08;;
43891;SDS011;29555;45.350;5.578;2023-11-21T13:33:00;1.85;;;1.67;;
43891;SDS011;29555;45.350;5.578;2023-11-21T13:35:30;3.17;;;2.65;;
43891;SDS011;29555;45.350;5.578;2023-11-21T13:40:38;3.03;;;2.72;;
43891;SDS011;29555;45.350;5.578;2023-11-21T13:43:11;2.95;;;2.22;;
43891;SDS011;29555;45.350;5.578;2023-11-21T13:45:38;2.17;;;1.98;;
43891;SDS011;29555;45.350;5.578;2023-11-21T13:48:05;3.22;;;2.28;;
43891;SDS011;29555;45.350;5.578;2023-11-21T13:50:35;3.28;;;2.97;;
43891;SDS011;29555;45.350;5.578;2023-11-21T13:53:04;4.50;;;2.92;;
43891;SDS011;29555;45.350;5.578;2023-11-21T13:55:44;4.72;;;3.47;;
43891;SDS011;29555;45.350;5.578;2023-11-21T13:58:10;4.25;;;3.42;;
43891;SDS011;29555;45.350;5.578;2023-11-21T14:00:41;4.32;;;2.78;;
43891;SDS011;29555;45.350;5.578;2023-11-21T14:03:10;2.90;;;2.60;;
43891;SDS011;29555;45.350;5.578;2023-11-21T14:05:44;2.85;;;2.13;;
43891;SDS011;29555;45.350;5.578;2023-11-21T14:08:12;4.53;;;2.35;;
43891;SDS011;29555;45.350;5.578;2023-11-21T14:10:41;3.80;;;2.42;;
43891;SDS011;29555;45.350;5.578;2023-11-21T14:13:14;6.95;;;2.50;;
43891;SDS011;29555;45.350;5.578;2023-11-21T14:15:41;3.88;;;2.95;;
43891;SDS011;29555;45.350;5.578;2023-11-21T14:18:10;6.70;;;2.90;;
43891;SDS011;29555;45.350;5.578;2023-11-21T14:20:38;9.77;;;4.90;;
43891;SDS011;29555;45.350;5.578;2023-11-21T14:23:05;3.97;;;3.67;;
43891;SDS011;29555;45.350;5.578;2023-11-21T14:25:32;7.55;;;3.95;;
43891;SDS011;29555;45.350;5.578;2023-11-21T14:27:58;2.78;;;2.33;;
43891;SDS011;29555;45.350;5.578;2023-11-21T14:30:23;5.35;;;3.00;;
43891;SDS011;29555;45.350;5.578;2023-11-21T14:32:50;6.20;;;2.30;;
43891;SDS011;29555;45.350;5.578;2023-11-21T14:35:16;4.78;;;3.95;;
43891;SDS011;29555;45.350;5.578;2023-11-21T14:37:42;6.13;;;3.60;;
43891;SDS011;29555;45.350;5.578;2023-11-21T14:40:08;28.15;;;17.05;;
43891;SDS011;29555;45.350;5.578;2023-11-21T14:42:34;8.85;;;5.45;;
43891;SDS011;29555;45.350;5.578;2023-11-21T14:45:02;4.18;;;2.63;;
43891;SDS011;29555;45.350;5.578;2023-11-21T14:47:31;5.80;;;2.75;;
43891;SDS011;29555;45.350;5.578;2023-11-21T14:49:58;6.63;;;3.28;;
43891;SDS011;29555;45.350;5.578;2023-11-21T14:52:24;16.15;;;4.82;;
43891;SDS011;29555;45.350;5.578;2023-11-21T14:55:05;15.30;;;5.97;;
43891;SDS011;29555;45.350;5.578;2023-11-21T14:58:03;9.50;;;4.82;;
43891;SDS011;29555;45.350;5.578;2023-11-21T15:00:29;5.82;;;2.92;;
43891;SDS011;29555;45.350;5.578;2023-11-21T15:03:10;4.95;;;2.17;;
43891;SDS011;29555;45.350;5.578;2023-11-21T15:05:46;2.38;;;1.77;;